Scarborough, ME

7:31 AM EST on February 28, 2015 (GMT -0500)
Saco Bay | Change Station
CLOSE
Current Station
Personal Weather Station
Location: Saco, ME
Elevation: 16 ft
Nearby Weather Stations

Elev 16 ft 43.49 °N, 70.39 °W | Updated 7 minutes ago

Clear
Clear
-3.3 °F
Feels Like -3 °F
N
2.7
Wind Variable Wind from NW

Today
High -- | Low -- °F
--% Chance of Precip.
Yesterday
High -- | Low -- °F
Precip. -- in
6:20 AM 5:28 PM
Waxing Gibbous, 77% visible
Pressure 30.67 in
Visibility 10.0 miles
Clouds Clear
Windchill -3 °F
Dew Point -12 °F
Humidity 66%
Rainfall 0.00 in
Snow Depth Not available.
UV 0 out of 12
Pollen .30 out of 12
Air Quality Not available.
Flu Activity Not available.
METAR KPWM 281151Z 00000KT 10SM CLR M19/M23 A3067 RMK AO2 SLP386 T11891233 11144 21217 51028

More Conditions Fewer Conditions

Pressure 30.67 in
Visibility 10.0 miles
Clouds Clear
Windchill -3 °F
Dew Point -12 °F
Humidity 66%
Rainfall 0.00 in
Snow Depth Not available.
UV 0 out of 12
Pollen .30 out of 12
Air Quality Not available.
Flu Activity Not available.
METAR KPWM 281151Z 00000KT 10SM CLR M19/M23 A3067 RMK AO2 SLP386 T11891233 11144 21217 51028

More Conditions Fewer Conditions

10-Day Weather Forecast

Almanac

Astronomy

Feb. 28, 2015 Rise Set
Actual Time
Civil Twilight
Nautical Twilight
Astronomical Twilight
Moon
Length of Visible Light
Length of Day
Tomorrow will be .
, % of the Moon is Illuminated

Today's Extremes

State Highs State Lows

Community

WunderPhotos

Upload Photos

1,800,999 photos uploaded!

WunderBlogs® & News

Nearby

Air Quality

  Air Quality AQ Index Pollutant
Not available.

Snow Depth

Station Depth Elevation

Earthquake Activity

City Distance Mag. Time & Date
Minimum magnitude displayed is 2.5.

Coastal Water Temperatures

Place Temperature

Nearby Weather Stations